Time;durP1;ratioP1;P1;durP2;ratioP2;P2;SDS_P1;SDS_P2;PMS_P1;PMS_P2;Temp;Humidity;BMP_temperature;BMP_pressure;BME280_temperature;BME280_humidity;BME280_pressure;Samples;Min_cycle;Max_cycle;Signal;HPM_P1;HPM_P2
2022/09/01 00:01:56;;;;;;;0.30;0.30;;;17.70;99.90;;;;;;5103251;28;20182;-82
2022/09/01 00:04:25;;;;;;;0.73;0.73;;;17.70;99.90;;;;;;5081080;28;20177;-82
2022/09/01 00:06:53;;;;;;;0.30;0.30;;;17.70;99.90;;;;;;5094195;28;20747;-82
2022/09/01 00:09:21;;;;;;;0.27;0.27;;;17.70;99.90;;;;;;5091710;28;20211;-82
2022/09/01 00:11:52;;;;;;;0.30;0.30;;;17.60;99.90;;;;;;5080336;28;20212;-82
2022/09/01 00:14:20;;;;;;;0.30;0.30;;;17.60;99.90;;;;;;5090525;28;20186;-82
2022/09/01 00:16:46;;;;;;;0.40;0.40;;;17.60;99.90;;;;;;5091203;28;20185;-82
2022/09/01 00:19:11;;;;;;;0.40;0.40;;;17.50;99.90;;;;;;5081196;28;20270;-82
2022/09/01 00:21:40;;;;;;;1.27;1.17;;;17.50;99.90;;;;;;5081557;28;20579;-82
2022/09/01 00:24:07;;;;;;;0.20;0.20;;;17.50;99.90;;;;;;5081662;28;20185;-82
2022/09/01 00:26:33;;;;;;;0.40;0.40;;;17.40;99.90;;;;;;5086488;28;20185;-82
2022/09/01 00:28:59;;;;;;;0.40;0.20;;;17.40;99.90;;;;;;5087765;28;20243;-82
2022/09/01 00:31:25;;;;;;;0.47;0.47;;;17.30;99.90;;;;;;5095321;28;20654;-82
2022/09/01 00:33:51;;;;;;;1.00;0.37;;;17.30;99.90;;;;;;5096289;28;20172;-82
2022/09/01 00:36:18;;;;;;;0.30;0.30;;;17.40;99.90;;;;;;5086741;28;20195;-82
2022/09/01 00:38:44;;;;;;;0.70;0.53;;;17.40;99.90;;;;;;5095274;28;20349;-82
2022/09/01 00:41:10;;;;;;;0.30;0.30;;;17.40;99.90;;;;;;5079701;28;20180;-82
2022/09/01 00:43:40;;;;;;;0.60;0.60;;;17.40;99.90;;;;;;5117097;27;20643;-82
2022/09/01 00:46:08;;;;;;;0.40;0.40;;;17.30;99.90;;;;;;5082492;28;20490;-82
2022/09/01 00:48:34;;;;;;;0.30;0.30;;;17.30;99.90;;;;;;5086013;28;20202;-82
2022/09/01 00:51:00;;;;;;;0.20;0.20;;;17.30;99.90;;;;;;5090002;28;20172;-82
2022/09/01 00:53:26;;;;;;;0.30;0.30;;;17.40;99.90;;;;;;5095864;28;20331;-82
2022/09/01 00:55:52;;;;;;;0.30;0.30;;;17.30;99.90;;;;;;5085036;28;20233;-82
2022/09/01 00:58:18;;;;;;;0.43;0.43;;;17.40;99.90;;;;;;5085093;28;20193;-82
2022/09/01 01:00:45;;;;;;;0.40;0.40;;;17.40;99.90;;;;;;5090678;28;20210;-82
2022/09/01 01:03:12;;;;;;;0.33;0.33;;;17.40;99.90;;;;;;5091696;28;20229;-82
2022/09/01 01:05:46;;;;;;;0.20;0.20;;;17.40;99.90;;;;;;5084867;28;20184;-82
2022/09/01 01:08:12;;;;;;;0.20;0.20;;;17.40;99.90;;;;;;5090247;28;20184;-82
2022/09/01 01:10:40;;;;;;;0.40;0.40;;;17.40;99.90;;;;;;5091943;28;20220;-82
2022/09/01 01:13:12;;;;;;;0.30;0.30;;;17.40;99.90;;;;;;5089438;28;20533;-82
2022/09/01 01:15:42;;;;;;;0.63;0.30;;;17.40;99.90;;;;;;5092820;28;20192;-82
2022/09/01 01:18:12;;;;;;;0.40;0.40;;;17.40;99.90;;;;;;5083312;28;20187;-82
2022/09/01 01:23:39;;;;;;;0.40;0.33;;;17.40;99.90;;;;;;5086148;28;20245;-82
2022/09/01 01:26:08;;;;;;;0.20;0.20;;;17.40;99.90;;;;;;5073970;28;20176;-81
2022/09/01 01:28:37;;;;;;;0.67;0.30;;;17.40;99.90;;;;;;5081729;28;20179;-82
2022/09/01 01:31:21;;;;;;;0.20;0.20;;;17.40;99.90;;;;;;5078300;28;20187;-82
2022/09/01 01:33:51;;;;;;;0.53;0.40;;;17.40;99.90;;;;;;5077708;28;20186;-82
2022/09/01 01:36:24;;;;;;;0.23;0.23;;;17.40;99.90;;;;;;5076089;28;21817;-82
2022/09/01 01:38:52;;;;;;;0.27;0.27;;;17.30;99.90;;;;;;5081327;28;20247;-82
2022/09/01 01:41:18;;;;;;;0.73;0.50;;;17.30;99.90;;;;;;5073833;28;20188;-82
2022/09/01 01:43:44;;;;;;;1.27;0.27;;;17.30;99.90;;;;;;5083866;28;20283;-82
2022/09/01 01:46:11;;;;;;;0.67;0.30;;;17.30;99.90;;;;;;5082073;28;20268;-82
2022/09/01 01:48:40;;;;;;;0.20;0.20;;;17.30;99.90;;;;;;5079150;28;20283;-82
2022/09/01 01:51:06;;;;;;;0.53;0.53;;;17.20;99.90;;;;;;5090705;28;20181;-82
2022/09/01 01:53:33;;;;;;;0.20;0.20;;;17.20;99.90;;;;;;5087101;28;20173;-82
2022/09/01 01:55:59;;;;;;;0.30;0.30;;;17.20;99.90;;;;;;5077989;28;20195;-82
2022/09/01 01:58:27;;;;;;;0.60;0.60;;;17.20;99.90;;;;;;5083916;28;20180;-82
2022/09/01 02:00:54;;;;;;;0.40;0.40;;;17.10;99.90;;;;;;5082589;28;20251;-82
2022/09/01 02:03:23;;;;;;;0.20;0.20;;;17.10;99.90;;;;;;5085076;28;20184;-82
2022/09/01 02:05:51;;;;;;;0.50;0.50;;;17.10;99.90;;;;;;5084724;28;20219;-82
2022/09/01 02:08:19;;;;;;;0.33;0.33;;;17.10;99.90;;;;;;5082645;28;20191;-82
2022/09/01 02:10:47;;;;;;;0.20;0.20;;;17.10;99.90;;;;;;5089166;28;20228;-82
2022/09/01 02:13:15;;;;;;;0.40;0.40;;;17.10;99.90;;;;;;5082886;28;20712;-82
2022/09/01 02:15:45;;;;;;;0.63;0.30;;;17.00;99.90;;;;;;5085002;28;20218;-82
2022/09/01 02:18:19;;;;;;;0.93;0.40;;;17.00;99.90;;;;;;5092679;28;20212;-82
2022/09/01 02:20:46;;;;;;;0.70;0.43;;;17.00;99.90;;;;;;5091416;28;21211;-82
2022/09/01 02:23:14;;;;;;;0.40;0.40;;;17.00;99.90;;;;;;5094132;28;20172;-82
2022/09/01 02:25:43;;;;;;;0.30;0.30;;;17.00;99.90;;;;;;5089913;28;20177;-82
2022/09/01 02:28:14;;;;;;;0.20;0.20;;;17.00;99.90;;;;;;5093241;28;20179;-81
2022/09/01 02:30:45;;;;;;;0.60;0.60;;;17.00;99.90;;;;;;5095529;28;20242;-82
2022/09/01 02:33:17;;;;;;;0.30;0.30;;;17.00;99.90;;;;;;5092900;28;20176;-81
2022/09/01 02:35:44;;;;;;;0.40;0.40;;;17.00;99.90;;;;;;5092119;28;20177;-82
2022/09/01 02:38:12;;;;;;;0.20;0.20;;;16.90;99.90;;;;;;5089999;28;20175;-82
2022/09/01 02:40:44;;;;;;;0.20;0.20;;;16.90;99.90;;;;;;5086310;28;20790;-82
2022/09/01 02:43:10;;;;;;;0.37;0.37;;;17.00;99.90;;;;;;5096485;28;20235;-82
2022/09/01 02:45:37;;;;;;;0.10;0.10;;;16.90;99.90;;;;;;5092095;28;20182;-82
2022/09/01 02:48:08;;;;;;;1.60;0.20;;;16.90;99.90;;;;;;5086005;28;20187;-82
2022/09/01 02:50:38;;;;;;;0.40;0.40;;;16.80;99.90;;;;;;5085566;28;20204;-82
2022/09/01 02:53:08;;;;;;;0.40;0.40;;;16.90;99.90;;;;;;5084894;28;20232;-82
2022/09/01 02:55:40;;;;;;;0.20;0.20;;;16.90;99.90;;;;;;5100902;28;20179;-82
2022/09/01 02:58:09;;;;;;;0.77;0.50;;;16.90;99.90;;;;;;5089579;28;20692;-82
2022/09/01 03:00:36;;;;;;;0.97;0.40;;;16.90;99.90;;;;;;5100808;28;20249;-82
2022/09/01 03:03:02;;;;;;;0.40;0.40;;;16.90;99.90;;;;;;5090659;28;20172;-81
2022/09/01 03:05:31;;;;;;;0.20;0.20;;;17.00;99.90;;;;;;5094932;28;20243;-82
2022/09/01 03:07:59;;;;;;;0.23;0.23;;;17.00;99.90;;;;;;5093914;28;20713;-82
2022/09/01 03:10:30;;;;;;;0.40;0.40;;;17.00;99.90;;;;;;5101599;28;20210;-82
2022/09/01 03:12:56;;;;;;;0.40;0.20;;;17.00;99.90;;;;;;5085228;28;20221;-82
2022/09/01 03:15:23;;;;;;;0.50;0.50;;;17.00;99.90;;;;;;5102618;28;20206;-82
2022/09/01 03:17:50;;;;;;;0.40;0.40;;;16.90;99.90;;;;;;5084765;28;20174;-82
2022/09/01 03:20:18;;;;;;;0.30;0.30;;;16.90;99.90;;;;;;5087845;28;20470;-81
2022/09/01 03:22:44;;;;;;;0.57;0.57;;;16.80;99.90;;;;;;5086148;28;20180;-82
2022/09/01 03:25:09;;;;;;;0.30;0.30;;;16.80;99.90;;;;;;5079477;28;20191;-82
2022/09/01 03:27:35;;;;;;;0.23;0.23;;;16.70;99.90;;;;;;5076944;28;20544;-82
2022/09/01 03:30:00;;;;;;;0.20;0.20;;;16.80;99.90;;;;;;5084836;28;20245;-82
2022/09/01 03:32:26;;;;;;;0.30;0.30;;;16.70;99.90;;;;;;5089121;28;20196;-82
2022/09/01 03:34:51;;;;;;;0.20;0.20;;;16.70;99.90;;;;;;5085051;28;20335;-82
2022/09/01 03:37:17;;;;;;;0.40;0.30;;;16.70;99.90;;;;;;5101419;28;20186;-82
2022/09/01 03:39:43;;;;;;;0.20;0.20;;;16.70;99.90;;;;;;5089675;28;20214;-81
2022/09/01 03:42:18;;;;;;;0.20;0.20;;;16.70;99.90;;;;;;5098228;28;20287;-82
2022/09/01 03:44:44;;;;;;;0.63;0.60;;;16.70;99.90;;;;;;5086745;28;20171;-82
2022/09/01 03:47:09;;;;;;;0.93;0.53;;;16.60;99.90;;;;;;5081915;28;20229;-82
2022/09/01 03:49:38;;;;;;;0.30;0.30;;;16.60;99.90;;;;;;5083919;28;20231;-82
2022/09/01 03:52:06;;;;;;;0.30;0.30;;;16.60;99.90;;;;;;5093377;28;20179;-81
2022/09/01 03:54:32;;;;;;;0.30;0.30;;;16.50;99.90;;;;;;5085824;28;20177;-82
2022/09/01 03:56:58;;;;;;;0.43;0.43;;;16.50;99.90;;;;;;5092766;28;20522;-82
2022/09/01 03:59:24;;;;;;;0.27;0.27;;;16.50;99.90;;;;;;5094400;28;20206;-82
2022/09/01 04:01:50;;;;;;;0.30;0.30;;;16.50;99.90;;;;;;5085687;28;20183;-82
2022/09/01 04:04:15;;;;;;;0.50;0.50;;;16.50;99.90;;;;;;5090571;28;20179;-82
2022/09/01 04:06:45;;;;;;;0.30;0.30;;;16.50;99.90;;;;;;5099737;28;20203;-81
2022/09/01 04:09:11;;;;;;;0.20;0.20;;;16.50;99.90;;;;;;5091716;28;20224;-82
2022/09/01 04:11:38;;;;;;;0.20;0.20;;;16.50;99.90;;;;;;5075069;28;20262;-81
2022/09/01 04:14:04;;;;;;;0.70;0.70;;;16.40;99.90;;;;;;5091681;28;20179;-82
2022/09/01 04:19:24;;;;;;;0.30;0.30;;;16.30;99.90;;;;;;5092975;28;20256;-82
2022/09/01 04:21:54;;;;;;;0.20;0.20;;;16.30;99.90;;;;;;5088526;28;20203;-82
2022/09/01 04:24:26;;;;;;;0.50;0.20;;;16.30;99.90;;;;;;5095740;28;20181;-82
2022/09/01 04:26:53;;;;;;;0.23;0.23;;;16.20;99.90;;;;;;5095061;28;20172;-81
2022/09/01 04:29:26;;;;;;;0.60;0.60;;;16.20;99.90;;;;;;5089470;28;20626;-82
2022/09/01 04:31:52;;;;;;;0.40;0.40;;;16.20;99.90;;;;;;5088261;28;20191;-82
2022/09/01 04:34:21;;;;;;;0.47;0.37;;;16.20;99.90;;;;;;5091787;28;20202;-81
2022/09/01 04:36:47;;;;;;;0.27;0.27;;;16.20;99.90;;;;;;5086500;28;20177;-81
2022/09/01 04:39:13;;;;;;;0.23;0.23;;;16.10;99.90;;;;;;5083565;28;20238;-82
2022/09/01 04:41:44;;;;;;;0.40;0.40;;;16.10;99.90;;;;;;5082038;28;20186;-82
2022/09/01 04:44:11;;;;;;;0.23;0.23;;;16.10;99.90;;;;;;5078125;28;20183;-82
2022/09/01 04:46:45;;;;;;;0.27;0.27;;;16.10;99.90;;;;;;5079666;28;20191;-81
2022/09/01 04:49:14;;;;;;;0.40;0.40;;;16.10;99.90;;;;;;5096263;28;20364;-81
2022/09/01 04:51:42;;;;;;;0.20;0.20;;;16.10;99.90;;;;;;5097334;28;20194;-81
2022/09/01 04:54:13;;;;;;;0.20;0.20;;;16.10;99.90;;;;;;5101266;28;20187;-81
2022/09/01 04:56:40;;;;;;;0.10;0.10;;;16.20;99.90;;;;;;5076490;28;20280;-81
2022/09/01 04:59:06;;;;;;;0.30;0.30;;;16.20;99.90;;;;;;5099420;28;20758;-82
2022/09/01 05:01:42;;;;;;;0.20;0.20;;;16.30;99.90;;;;;;5085471;28;20571;-82
2022/09/01 05:04:11;;;;;;;0.17;0.17;;;16.30;99.90;;;;;;5076494;28;20179;-82
2022/09/01 05:06:41;;;;;;;0.27;0.27;;;16.30;99.90;;;;;;5097431;28;20182;-82
2022/09/01 05:09:08;;;;;;;0.30;0.30;;;16.20;99.90;;;;;;5085328;28;20215;-82
2022/09/01 05:11:34;;;;;;;0.80;0.70;;;16.20;99.90;;;;;;5083065;28;20233;-82
2022/09/01 05:14:01;;;;;;;1.20;0.70;;;16.20;99.90;;;;;;5092150;28;20178;-81
2022/09/01 05:16:27;;;;;;;0.47;0.47;;;16.30;99.90;;;;;;5092105;28;20266;-81
2022/09/01 05:18:55;;;;;;;1.43;1.33;;;16.30;99.90;;;;;;5088412;28;20296;-81
2022/09/01 05:21:25;;;;;;;0.40;0.40;;;16.30;99.90;;;;;;5090060;28;20191;-81
2022/09/01 05:23:53;;;;;;;0.40;0.40;;;16.30;99.90;;;;;;5093959;28;20202;-81
2022/09/01 05:26:22;;;;;;;0.30;0.30;;;16.40;99.90;;;;;;5079487;28;20657;-82
2022/09/01 05:28:55;;;;;;;0.20;0.20;;;16.40;99.90;;;;;;5081672;28;20284;-82
2022/09/01 05:31:26;;;;;;;0.30;0.30;;;16.50;99.90;;;;;;5085284;28;20180;-81
2022/09/01 05:33:53;;;;;;;0.27;0.27;;;16.60;99.90;;;;;;5088694;28;20205;-82
2022/09/01 05:36:21;;;;;;;0.20;0.20;;;16.60;99.90;;;;;;5082657;28;20225;-81
2022/09/01 05:38:48;;;;;;;0.40;0.40;;;16.60;99.90;;;;;;5089837;28;20405;-81
2022/09/01 05:41:15;;;;;;;0.40;0.40;;;16.60;99.90;;;;;;5090346;28;20536;-82
2022/09/01 05:43:45;;;;;;;0.43;0.43;;;16.70;99.90;;;;;;5095910;28;20185;-82
2022/09/01 05:46:14;;;;;;;0.33;0.33;;;16.90;99.90;;;;;;5085970;28;20207;-82
2022/09/01 05:48:40;;;;;;;0.80;0.70;;;17.00;99.90;;;;;;5078131;28;20198;-82
2022/09/01 05:51:07;;;;;;;0.30;0.30;;;17.00;99.90;;;;;;5085018;28;20195;-82
2022/09/01 05:53:33;;;;;;;0.40;0.40;;;17.20;99.90;;;;;;5091303;28;20187;-82
2022/09/01 05:56:05;;;;;;;0.40;0.40;;;17.30;99.90;;;;;;5090766;28;20180;-82
2022/09/01 05:58:33;;;;;;;0.40;0.40;;;17.30;99.90;;;;;;5085004;28;20659;-82
2022/09/01 06:01:00;;;;;;;0.60;0.53;;;17.50;99.90;;;;;;5085309;28;20673;-82
2022/09/01 06:03:26;;;;;;;0.60;0.60;;;17.60;99.90;;;;;;5082745;28;20871;-82
2022/09/01 06:05:54;;;;;;;0.40;0.40;;;17.60;99.90;;;;;;5095403;28;20552;-82
2022/09/01 06:08:22;;;;;;;0.50;0.50;;;17.60;99.90;;;;;;5089379;28;20188;-82
2022/09/01 06:10:49;;;;;;;1.90;0.50;;;17.70;99.90;;;;;;5094664;28;20203;-82
2022/09/01 06:13:15;;;;;;;0.80;0.60;;;17.70;99.90;;;;;;5084589;28;20195;-82
2022/09/01 06:15:43;;;;;;;0.30;0.30;;;17.70;99.90;;;;;;5091350;28;20216;-82
2022/09/01 06:18:11;;;;;;;0.20;0.20;;;17.80;99.90;;;;;;5084067;28;20270;-82
2022/09/01 06:20:46;;;;;;;0.40;0.40;;;17.70;99.90;;;;;;5083813;28;20222;-82
2022/09/01 06:23:14;;;;;;;0.37;0.37;;;17.80;99.90;;;;;;5081226;28;20671;-82
2022/09/01 06:25:45;;;;;;;0.50;0.50;;;17.70;99.90;;;;;;5084796;28;20183;-82
2022/09/01 06:28:18;;;;;;;0.30;0.30;;;17.80;99.90;;;;;;5080936;28;20168;-82
2022/09/01 06:30:45;;;;;;;0.37;0.37;;;17.70;99.90;;;;;;5079238;28;20197;-82
2022/09/01 06:33:12;;;;;;;0.43;0.43;;;17.80;99.90;;;;;;5089236;28;20184;-82
2022/09/01 06:35:40;;;;;;;0.30;0.30;;;17.70;99.90;;;;;;5083813;28;20189;-82
2022/09/01 06:38:08;;;;;;;0.60;0.37;;;17.80;99.90;;;;;;5090473;28;20181;-82
2022/09/01 06:40:34;;;;;;;2.23;1.60;;;17.90;99.90;;;;;;5086232;28;20250;-81
2022/09/01 06:43:06;;;;;;;0.30;0.30;;;18.00;99.90;;;;;;5093454;28;20176;-82
2022/09/01 06:45:34;;;;;;;0.30;0.30;;;18.00;99.90;;;;;;5083865;28;20192;-81
2022/09/01 06:48:00;;;;;;;0.40;0.40;;;18.00;99.90;;;;;;5083418;28;20204;-81
2022/09/01 06:50:26;;;;;;;0.37;0.37;;;18.10;99.90;;;;;;5085041;28;20219;-81
2022/09/01 06:53:00;;;;;;;0.50;0.50;;;18.20;99.90;;;;;;5086083;28;20179;-81
2022/09/01 06:55:30;;;;;;;0.40;0.40;;;18.20;99.90;;;;;;5086732;28;20806;-81
2022/09/01 06:57:57;;;;;;;0.50;0.50;;;18.20;99.90;;;;;;5091970;28;20179;-81
2022/09/01 07:00:27;;;;;;;0.40;0.33;;;18.20;99.90;;;;;;5084688;28;20226;-81
2022/09/01 07:02:55;;;;;;;0.27;0.27;;;18.30;99.90;;;;;;5082768;28;20665;-81
2022/09/01 07:05:22;;;;;;;0.50;0.47;;;18.40;99.90;;;;;;5084446;28;20193;-81
2022/09/01 07:07:54;;;;;;;0.50;0.50;;;18.60;99.90;;;;;;5090003;28;20264;-81
2022/09/01 07:10:24;;;;;;;0.20;0.20;;;18.50;99.90;;;;;;5092815;28;20200;-81
2022/09/01 07:12:57;;;;;;;0.30;0.30;;;18.80;99.90;;;;;;5094469;28;20714;-82
2022/09/01 07:15:23;;;;;;;0.40;0.40;;;19.10;99.90;;;;;;5092112;28;20622;-81
2022/09/01 07:17:54;;;;;;;0.60;0.60;;;18.90;99.90;;;;;;5103439;28;20247;-81
2022/09/01 07:20:26;;;;;;;0.30;0.30;;;18.70;99.90;;;;;;5081401;28;20743;-81
2022/09/01 07:22:53;;;;;;;0.30;0.30;;;19.00;99.90;;;;;;5094171;28;20662;-81
2022/09/01 07:25:19;;;;;;;0.30;0.30;;;19.00;99.90;;;;;;5091003;28;20271;-81
2022/09/01 07:27:48;;;;;;;0.57;0.57;;;19.10;99.90;;;;;;5088557;28;20286;-81
2022/09/01 07:30:14;;;;;;;0.33;0.33;;;18.90;99.90;;;;;;5094373;28;20204;-81
2022/09/01 07:32:42;;;;;;;0.60;0.40;;;19.00;99.90;;;;;;5087295;28;20181;-81
2022/09/01 07:35:08;;;;;;;0.40;0.40;;;19.20;99.90;;;;;;5091383;28;20189;-80
2022/09/01 07:37:37;;;;;;;0.87;0.30;;;19.30;99.90;;;;;;5086926;28;20180;-81
2022/09/01 07:40:08;;;;;;;0.73;0.37;;;19.30;99.90;;;;;;5079460;28;20196;-81
2022/09/01 07:42:34;;;;;;;0.50;0.50;;;19.60;99.90;;;;;;5091793;28;20176;-81
2022/09/01 07:45:05;;;;;;;0.40;0.40;;;19.40;99.90;;;;;;5087895;28;20168;-81
2022/09/01 07:47:32;;;;;;;0.23;0.23;;;19.50;99.90;;;;;;5085418;28;20185;-81
2022/09/01 07:49:59;;;;;;;0.50;0.50;;;19.50;99.90;;;;;;5077508;28;20220;-81
2022/09/01 07:52:25;;;;;;;0.30;0.30;;;19.20;99.90;;;;;;5074354;28;20226;-81
2022/09/01 07:54:51;;;;;;;0.70;0.60;;;19.10;99.90;;;;;;5077134;28;20180;-81
2022/09/01 07:57:17;;;;;;;0.77;0.40;;;19.10;99.90;;;;;;5083776;28;20181;-81
2022/09/01 07:59:42;;;;;;;0.50;0.50;;;19.10;99.90;;;;;;5086770;28;20211;-81
2022/09/01 08:02:09;;;;;;;0.50;0.50;;;19.10;99.90;;;;;;5090247;28;20175;-81
2022/09/01 08:04:35;;;;;;;0.53;0.53;;;19.10;99.90;;;;;;5084478;28;20190;-81
2022/09/01 08:07:00;;;;;;;0.30;0.30;;;19.40;99.90;;;;;;5084197;28;20203;-81
2022/09/01 08:09:26;;;;;;;0.50;0.50;;;19.30;99.90;;;;;;5081739;28;20231;-81
2022/09/01 08:11:51;;;;;;;0.47;0.47;;;19.30;99.90;;;;;;5088499;28;20180;-81
2022/09/01 08:14:17;;;;;;;0.83;0.83;;;19.40;99.90;;;;;;5083575;28;21356;-80
2022/09/01 08:16:42;;;;;;;0.43;0.43;;;19.40;99.90;;;;;;5085685;28;20672;-81
2022/09/01 08:19:08;;;;;;;0.30;0.30;;;19.50;99.90;;;;;;5088021;28;20212;-81
2022/09/01 08:21:34;;;;;;;0.23;0.23;;;19.80;99.90;;;;;;5087130;28;20290;-81
2022/09/01 08:23:59;;;;;;;1.73;0.87;;;19.80;99.90;;;;;;5090135;28;20725;-81
2022/09/01 08:26:25;;;;;;;0.40;0.40;;;19.80;99.90;;;;;;5079805;28;20181;-81
2022/09/01 08:28:52;;;;;;;0.20;0.20;;;19.80;99.90;;;;;;5084397;28;20632;-82
2022/09/01 08:31:19;;;;;;;0.77;0.77;;;19.80;99.90;;;;;;5082193;28;20737;-82
2022/09/01 08:33:46;;;;;;;0.60;0.60;;;20.10;99.90;;;;;;5084305;28;20185;-82
2022/09/01 08:36:14;;;;;;;0.73;0.50;;;20.30;99.90;;;;;;5084712;28;20180;-82
2022/09/01 08:38:41;;;;;;;0.50;0.50;;;20.40;99.90;;;;;;5093400;28;20236;-81
2022/09/01 08:41:23;;;;;;;0.50;0.50;;;20.40;99.90;;;;;;5083372;28;20204;-82
2022/09/01 08:43:59;;;;;;;0.40;0.30;;;20.70;99.90;;;;;;5089233;28;20204;-81
2022/09/01 08:46:33;;;;;;;0.93;0.90;;;20.70;99.90;;;;;;5086855;28;20645;-82
2022/09/01 08:49:01;;;;;;;0.50;0.50;;;20.80;99.90;;;;;;5082934;28;20711;-82
2022/09/01 08:51:37;;;;;;;0.63;0.60;;;20.80;99.90;;;;;;5082685;28;20204;-81
2022/09/01 08:54:16;;;;;;;0.40;0.40;;;21.00;99.90;;;;;;5083213;28;20171;-82
2022/09/01 08:56:42;;;;;;;0.50;0.50;;;21.00;99.90;;;;;;5088637;28;20176;-82
2022/09/01 08:59:09;;;;;;;0.57;0.57;;;20.90;99.90;;;;;;5092015;28;20211;-79
2022/09/01 09:01:54;;;;;;;0.70;0.70;;;20.80;99.90;;;;;;5086787;28;20176;-79
2022/09/01 09:04:34;;;;;;;0.57;0.57;;;20.90;99.90;;;;;;5080931;28;20541;-79
2022/09/01 09:07:31;;;;;;;0.40;0.40;;;20.80;99.90;;;;;;5078004;28;20175;-82
2022/09/01 09:10:07;;;;;;;0.40;0.40;;;20.80;99.90;;;;;;5082989;28;20196;-82
2022/09/01 09:12:35;;;;;;;0.50;0.50;;;21.20;99.90;;;;;;5091133;28;20172;-82
2022/09/01 09:15:13;;;;;;;0.30;0.30;;;21.50;99.90;;;;;;5080960;28;20248;-82
2022/09/01 09:17:52;;;;;;;0.33;0.33;;;21.00;99.90;;;;;;5082080;28;20180;-79
2022/09/01 09:20:17;;;;;;;1.13;0.53;;;21.40;99.90;;;;;;5084723;28;20211;-82
2022/09/01 09:22:45;;;;;;;0.40;0.40;;;21.60;99.90;;;;;;5087118;28;20538;-82
2022/09/01 09:25:15;;;;;;;0.53;0.53;;;21.70;99.90;;;;;;5089598;28;20243;-82
2022/09/01 09:27:43;;;;;;;0.97;0.93;;;21.80;99.90;;;;;;5083897;28;20212;-79
2022/09/01 09:30:10;;;;;;;0.70;0.70;;;21.20;99.90;;;;;;5087857;28;20197;-80
2022/09/01 09:32:54;;;;;;;0.50;0.50;;;21.30;99.90;;;;;;5087422;28;20180;-79
2022/09/01 09:35:24;;;;;;;0.40;0.40;;;21.80;99.90;;;;;;5082573;28;20712;-79
2022/09/01 09:37:50;;;;;;;0.57;0.57;;;22.30;99.90;;;;;;5084911;28;20627;-79
2022/09/01 09:40:19;;;;;;;0.83;0.47;;;22.70;99.90;;;;;;5078081;28;20205;-80
2022/09/01 09:42:54;;;;;;;1.40;0.63;;;22.50;99.90;;;;;;5085406;28;20271;-79
2022/09/01 09:45:25;;;;;;;0.20;0.20;;;22.70;99.90;;;;;;5079642;28;20225;-80
2022/09/01 09:47:52;;;;;;;0.40;0.40;;;22.60;99.90;;;;;;5086858;28;20212;-81
2022/09/01 09:50:31;;;;;;;0.33;0.33;;;22.90;99.90;;;;;;5079862;28;20220;-80
2022/09/01 09:53:25;;;;;;;0.63;0.63;;;22.70;99.90;;;;;;5081568;28;20184;-79
2022/09/01 09:55:55;;;;;;;0.33;0.33;;;22.70;99.90;;;;;;5082509;28;20627;-79
2022/09/01 09:58:26;;;;;;;0.40;0.40;;;22.90;99.90;;;;;;5079727;28;20180;-79
2022/09/01 10:01:13;;;;;;;0.73;0.73;;;23.50;99.90;;;;;;5079384;28;20257;-80
2022/09/01 10:03:43;;;;;;;0.50;0.50;;;23.80;99.90;;;;;;5084374;28;20195;-79
2022/09/01 10:06:27;;;;;;;0.47;0.47;;;23.40;99.90;;;;;;5077509;28;20181;-79
2022/09/01 10:08:53;;;;;;;0.50;0.50;;;23.20;99.90;;;;;;5077526;28;20256;-79
2022/09/01 10:11:35;;;;;;;0.50;0.50;;;23.70;99.90;;;;;;5076263;28;20284;-79
2022/09/01 10:14:05;;;;;;;0.57;0.57;;;23.50;99.90;;;;;;5085598;28;20208;-79
2022/09/01 10:16:33;;;;;;;0.70;0.70;;;22.80;99.90;;;;;;5078037;28;20184;-79
2022/09/01 10:19:00;;;;;;;0.33;0.33;;;22.80;99.90;;;;;;5083262;28;20708;-79
2022/09/01 10:21:37;;;;;;;0.73;0.70;;;23.00;99.90;;;;;;5088337;28;20222;-79
2022/09/01 10:24:15;;;;;;;0.83;0.70;;;22.80;99.90;;;;;;5085353;28;20188;-79
2022/09/01 10:26:43;;;;;;;0.50;0.50;;;23.20;99.90;;;;;;5076978;28;20181;-79
2022/09/01 10:29:16;;;;;;;0.80;0.80;;;22.80;99.90;;;;;;5084479;28;20208;-80
2022/09/01 10:31:42;;;;;;;0.87;0.87;;;22.70;99.90;;;;;;5082884;28;20706;-79
2022/09/01 10:34:15;;;;;;;0.67;0.67;;;22.80;99.90;;;;;;5084469;28;20211;-79
2022/09/01 10:36:42;;;;;;;0.23;0.23;;;23.40;99.90;;;;;;5080117;28;20191;-79
2022/09/01 10:39:12;;;;;;;0.60;0.60;;;23.30;99.90;;;;;;5087689;28;20212;-79
2022/09/01 10:41:42;;;;;;;0.30;0.30;;;23.50;99.90;;;;;;5085244;28;20181;-80
2022/09/01 10:44:18;;;;;;;3.30;1.03;;;23.50;99.90;;;;;;5080277;28;20175;-79
2022/09/01 10:46:44;;;;;;;1.10;0.73;;;23.60;99.90;;;;;;5086817;28;20235;-79
2022/09/01 10:49:45;;;;;;;0.50;0.50;;;24.10;99.90;;;;;;5078641;28;20248;-79
2022/09/01 10:52:40;;;;;;;0.33;0.33;;;23.20;99.90;;;;;;5042997;28;20206;-79
2022/09/01 10:55:10;;;;;;;0.50;0.50;;;23.90;99.90;;;;;;5083792;28;20173;-82
2022/09/01 10:58:05;;;;;;;0.40;0.40;;;24.20;99.90;;;;;;5078034;28;20189;-82
2022/09/01 11:00:33;;;;;;;0.50;0.50;;;24.30;99.90;;;;;;5087366;28;20204;-82
2022/09/01 11:03:11;;;;;;;0.40;0.40;;;23.70;99.90;;;;;;5084079;28;20172;-81
2022/09/01 11:05:52;;;;;;;0.60;0.60;;;23.90;99.90;;;;;;5077496;28;20177;-82
2022/09/01 11:08:38;;;;;;;0.30;0.30;;;24.40;99.90;;;;;;5084456;28;20214;-79
2022/09/01 11:11:27;;;;;;;0.60;0.60;;;24.80;99.90;;;;;;5084108;28;20548;-79
2022/09/01 11:14:00;;;;;;;0.70;0.70;;;24.60;99.90;;;;;;5089570;28;20185;-79
2022/09/01 11:16:36;;;;;;;1.03;0.53;;;24.00;99.90;;;;;;5089968;28;20182;-79
2022/09/01 11:19:30;;;;;;;0.73;0.40;;;23.90;99.90;;;;;;5080203;28;21984;-81
2022/09/01 11:22:23;;;;;;;0.70;0.70;;;23.70;99.90;;;;;;5083137;28;20172;-79
2022/09/01 11:24:51;;;;;;;1.20;0.80;;;23.60;99.90;;;;;;5085672;28;20200;-79
2022/09/01 11:27:45;;;;;;;0.43;0.43;;;23.40;99.90;;;;;;5078355;28;20169;-80
2022/09/01 11:30:16;;;;;;;0.50;0.50;;;23.40;99.90;;;;;;5076936;28;20200;-79
2022/09/01 11:32:49;;;;;;;0.70;0.70;;;23.90;99.90;;;;;;5081044;28;20177;-80
2022/09/01 11:35:18;;;;;;;0.80;0.80;;;24.40;99.90;;;;;;5085688;28;20264;-79
2022/09/01 11:37:56;;;;;;;0.60;0.57;;;24.60;99.90;;;;;;5100132;28;20177;-79
2022/09/01 11:40:28;;;;;;;0.90;0.70;;;24.90;99.90;;;;;;5081405;28;20204;-79
2022/09/01 11:42:57;;;;;;;0.50;0.50;;;24.10;99.90;;;;;;5077760;28;20188;-79
2022/09/01 11:45:34;;;;;;;0.63;0.63;;;23.80;99.90;;;;;;5088765;28;20176;-79
2022/09/01 11:48:06;;;;;;;0.40;0.40;;;24.20;99.90;;;;;;5078195;28;20198;-79
2022/09/01 11:50:35;;;;;;;0.80;0.60;;;24.80;99.90;;;;;;5079214;28;20300;-79
2022/09/01 11:53:08;;;;;;;1.83;0.50;;;25.30;99.90;;;;;;5087911;28;20192;-79
2022/09/01 11:55:36;;;;;;;0.30;0.30;;;25.50;99.90;;;;;;5076391;28;20180;-79
2022/09/01 11:58:02;;;;;;;0.67;0.60;;;25.90;99.90;;;;;;5084544;28;20181;-82
2022/09/01 12:00:31;;;;;;;0.53;0.53;;;26.30;99.90;;;;;;5078811;28;20231;-82
2022/09/01 12:02:58;;;;;;;0.93;0.70;;;25.60;99.90;;;;;;5084590;28;20255;-82
2022/09/01 12:05:34;;;;;;;0.90;0.90;;;25.10;99.90;;;;;;5082423;28;20740;-82
2022/09/01 12:08:17;;;;;;;0.57;0.53;;;25.10;99.90;;;;;;5077430;28;20165;-82
2022/09/01 12:10:44;;;;;;;0.50;0.50;;;25.40;99.90;;;;;;5081955;28;20249;-82
2022/09/01 12:13:17;;;;;;;0.83;0.83;;;25.40;99.90;;;;;;5078165;28;20178;-82
2022/09/01 12:15:43;;;;;;;2.20;0.60;;;24.70;99.90;;;;;;5081298;28;20184;-80
2022/09/01 12:18:18;;;;;;;0.20;0.20;;;24.90;99.90;;;;;;5081409;28;20190;-81
2022/09/01 12:20:44;;;;;;;0.40;0.40;;;25.50;99.90;;;;;;5088585;28;20192;-82
2022/09/01 12:23:24;;;;;;;1.10;0.43;;;25.60;99.90;;;;;;5081323;28;20179;-82
2022/09/01 12:25:56;;;;;;;0.93;0.93;;;25.50;99.90;;;;;;5089737;28;20180;-82
2022/09/01 12:28:31;;;;;;;0.50;0.50;;;25.40;99.90;;;;;;5082516;28;20177;-82
2022/09/01 12:30:59;;;;;;;0.40;0.40;;;25.60;99.90;;;;;;5088874;28;20208;-82
2022/09/01 12:33:25;;;;;;;0.30;0.30;;;25.30;99.90;;;;;;5087726;28;20172;-82
2022/09/01 12:35:51;;;;;;;0.70;0.70;;;25.80;99.90;;;;;;5090147;28;20267;-82
2022/09/01 12:38:21;;;;;;;1.07;0.50;;;25.70;99.90;;;;;;5085656;28;20173;-82
2022/09/01 12:40:48;;;;;;;0.70;0.60;;;25.20;99.90;;;;;;5080986;28;20201;-82
2022/09/01 12:43:38;;;;;;;0.60;0.60;;;24.70;99.90;;;;;;5078197;28;20195;-82
2022/09/01 12:46:05;;;;;;;0.60;0.60;;;24.30;99.90;;;;;;5082471;28;20230;-82
2022/09/01 12:48:35;;;;;;;0.47;0.47;;;24.60;99.90;;;;;;5085976;28;20189;-82
2022/09/01 12:51:18;;;;;;;0.50;0.50;;;24.80;99.90;;;;;;5078738;28;20260;-82
2022/09/01 12:54:10;;;;;;;0.80;0.80;;;24.90;99.90;;;;;;5088077;28;20175;-82
2022/09/01 12:56:37;;;;;;;0.40;0.40;;;25.10;99.90;;;;;;5078451;28;20219;-82
2022/09/01 12:59:12;;;;;;;0.50;0.50;;;25.10;99.90;;;;;;5085146;28;20681;-82
2022/09/01 13:01:41;;;;;;;0.30;0.30;;;25.60;99.90;;;;;;5078316;28;20204;-82
2022/09/01 13:04:27;;;;;;;0.70;0.70;;;25.40;99.90;;;;;;5080953;28;20173;-82
2022/09/01 13:06:55;;;;;;;0.63;0.60;;;24.90;99.90;;;;;;5078876;28;20184;-82
2022/09/01 13:09:21;;;;;;;0.50;0.50;;;24.70;99.90;;;;;;5083583;28;20657;-81